Time;durP1;ratioP1;P1;durP2;ratioP2;P2;SDS_P1;SDS_P2;PMS_P1;PMS_P2;Temp;Humidity;BMP_temperature;BMP_pressure;BME280_temperature;BME280_humidity;BME280_pressure;Samples;Min_cycle;Max_cycle;Signal;HPM_P1;HPM_P2
2021/03/29 00:00:19;;;;;;;10.65;3.40;;;12.30;85.90;;;;;;2016551;29;20050;-77
2021/03/29 00:01:20;;;;;;;9.82;3.13;;;12.30;85.80;;;;;;2016470;29;20057;-77
2021/03/29 00:02:22;;;;;;;9.15;3.63;;;12.30;85.90;;;;;;2016628;29;20033;-77
2021/03/29 00:03:22;;;;;;;11.10;4.07;;;12.40;85.20;;;;;;2010152;29;20094;-77
2021/03/29 00:04:23;;;;;;;9.55;3.30;;;12.40;84.70;;;;;;2015861;29;20040;-77
2021/03/29 00:05:25;;;;;;;9.98;3.80;;;12.30;84.70;;;;;;2016713;29;20060;-77
2021/03/29 00:06:27;;;;;;;10.05;3.22;;;12.30;84.40;;;;;;2016502;29;20527;-77
2021/03/29 00:07:29;;;;;;;9.38;3.58;;;12.40;84.70;;;;;;2015866;29;20417;-77
2021/03/29 00:08:32;;;;;;;14.40;3.38;;;12.40;84.80;;;;;;2017201;29;20063;-77
2021/03/29 00:09:35;;;;;;;7.10;3.08;;;12.40;84.50;;;;;;2016681;29;20037;-77
2021/03/29 00:10:38;;;;;;;13.68;3.83;;;12.40;84.20;;;;;;2016499;29;20469;-77
2021/03/29 00:11:40;;;;;;;11.98;3.13;;;12.40;83.90;;;;;;2017360;29;20021;-77
2021/03/29 00:12:45;;;;;;;11.10;3.58;;;12.40;83.90;;;;;;2023987;29;20032;-77
2021/03/29 00:13:47;;;;;;;7.93;3.30;;;12.30;83.50;;;;;;2023718;29;20021;-77
2021/03/29 00:14:49;;;;;;;10.18;3.42;;;12.30;83.40;;;;;;2017569;29;20024;-77
2021/03/29 00:15:53;;;;;;;9.32;3.28;;;12.30;83.40;;;;;;2024608;29;20623;-77
2021/03/29 00:16:54;;;;;;;8.45;2.80;;;12.30;83.20;;;;;;2023627;29;20489;-77
2021/03/29 00:17:55;;;;;;;11.23;3.47;;;12.40;83.20;;;;;;2017357;29;20025;-77
2021/03/29 00:18:56;;;;;;;9.00;3.13;;;12.40;83.10;;;;;;2017288;29;20100;-77
2021/03/29 00:19:57;;;;;;;8.68;3.17;;;12.30;83.00;;;;;;2017626;29;20029;-77
2021/03/29 00:21:08;;;;;;;7.65;3.08;;;12.30;82.70;;;;;;2016970;29;20025;-77
2021/03/29 00:22:10;;;;;;;8.50;3.00;;;12.40;82.40;;;;;;2016487;29;20041;-77
2021/03/29 00:23:11;;;;;;;9.60;3.33;;;12.40;82.30;;;;;;2017003;29;20021;-77
2021/03/29 00:24:11;;;;;;;8.32;2.90;;;12.40;82.30;;;;;;2016334;29;20025;-77
2021/03/29 00:25:18;;;;;;;8.48;3.00;;;12.40;82.60;;;;;;2017508;29;20033;-77
2021/03/29 00:26:18;;;;;;;10.70;3.20;;;12.40;82.30;;;;;;2017098;29;20013;-77
2021/03/29 00:27:19;;;;;;;8.15;3.35;;;12.30;81.70;;;;;;2016660;29;20028;-77
2021/03/29 00:28:20;;;;;;;8.23;3.28;;;12.30;81.80;;;;;;2017079;29;20021;-77
2021/03/29 00:29:20;;;;;;;8.23;3.40;;;12.30;82.00;;;;;;2024352;29;20048;-77
2021/03/29 00:30:25;;;;;;;11.10;3.47;;;12.40;82.10;;;;;;2017855;29;20556;-77
2021/03/29 00:31:26;;;;;;;8.40;2.85;;;12.40;81.50;;;;;;2015271;29;20121;-77
2021/03/29 00:32:27;;;;;;;10.60;2.95;;;12.30;81.60;;;;;;2027071;29;20054;-76
2021/03/29 00:33:29;;;;;;;8.93;3.05;;;12.40;81.50;;;;;;2019747;29;20094;-77
2021/03/29 00:34:31;;;;;;;9.43;3.20;;;12.40;81.30;;;;;;2019772;29;20057;-77
2021/03/29 00:35:35;;;;;;;9.07;3.55;;;12.40;81.40;;;;;;2019453;29;20084;-77
2021/03/29 00:36:36;;;;;;;8.00;3.08;;;12.40;81.50;;;;;;2018969;29;20509;-77
2021/03/29 00:37:39;;;;;;;9.70;3.20;;;12.40;80.60;;;;;;2010155;29;20434;-77
2021/03/29 00:38:41;;;;;;;8.57;3.10;;;12.40;80.60;;;;;;2016093;29;20024;-77
2021/03/29 00:39:42;;;;;;;7.75;2.80;;;12.40;80.80;;;;;;2019307;29;20068;-78
2021/03/29 00:40:47;;;;;;;8.88;3.38;;;12.40;80.70;;;;;;2019288;29;20025;-77
2021/03/29 00:41:49;;;;;;;8.60;3.05;;;12.40;80.70;;;;;;2014628;29;20024;-77
2021/03/29 00:42:57;;;;;;;7.63;3.15;;;12.40;80.40;;;;;;2019016;29;20035;-77
2021/03/29 00:43:59;;;;;;;9.90;3.40;;;12.40;80.70;;;;;;2018612;29;20029;-77
2021/03/29 00:45:00;;;;;;;8.05;3.15;;;12.40;80.40;;;;;;2018437;29;20037;-76
2021/03/29 00:46:03;;;;;;;8.05;3.00;;;12.40;79.70;;;;;;2018505;29;20052;-77
2021/03/29 00:47:04;;;;;;;11.27;3.13;;;12.40;79.50;;;;;;2017644;29;20448;-77
2021/03/29 00:48:06;;;;;;;11.98;3.25;;;12.40;79.30;;;;;;2016895;29;20051;-77
2021/03/29 00:49:07;;;;;;;8.35;2.95;;;12.40;79.60;;;;;;2017904;29;20119;-77
2021/03/29 00:50:21;;;;;;;15.10;3.15;;;12.40;79.80;;;;;;2017785;29;20390;-77
2021/03/29 00:51:28;;;;;;;10.63;3.63;;;12.40;79.60;;;;;;2017933;29;20021;-76
2021/03/29 00:52:28;;;;;;;10.48;3.05;;;12.40;80.00;;;;;;2017922;29;20148;-76
2021/03/29 00:53:30;;;;;;;8.80;3.22;;;12.40;80.20;;;;;;2018927;29;20036;-77
2021/03/29 00:54:32;;;;;;;9.70;3.15;;;12.40;80.10;;;;;;2018272;29;20067;-77
2021/03/29 00:55:33;;;;;;;9.98;3.50;;;12.40;80.00;;;;;;2017808;29;20116;-77
2021/03/29 00:56:38;;;;;;;7.00;3.15;;;12.40;79.90;;;;;;2009956;29;20029;-77
2021/03/29 00:57:40;;;;;;;7.57;3.20;;;12.40;79.90;;;;;;2014536;29;20025;-77
2021/03/29 00:58:42;;;;;;;10.73;4.15;;;12.40;80.20;;;;;;2018575;29;20089;-77
2021/03/29 00:59:43;;;;;;;11.25;3.78;;;12.40;80.10;;;;;;2018536;29;20389;-77
2021/03/29 01:00:52;;;;;;;9.35;3.35;;;12.40;80.00;;;;;;2018244;29;20479;-77
2021/03/29 01:01:53;;;;;;;9.18;3.00;;;12.40;80.20;;;;;;2011244;29;20025;-77
2021/03/29 01:02:54;;;;;;;9.20;3.30;;;12.40;80.20;;;;;;2026108;23;20048;-76
2021/03/29 01:03:57;;;;;;;8.40;3.20;;;12.40;80.00;;;;;;2032366;29;20032;-76
2021/03/29 01:04:58;;;;;;;8.75;2.90;;;12.40;80.40;;;;;;2033432;29;20028;-76
2021/03/29 01:06:20;;;;;;;14.63;3.80;;;12.40;80.10;;;;;;2032062;29;20023;-76
2021/03/29 01:07:20;;;;;;;11.95;3.35;;;12.40;80.00;;;;;;2032602;29;20028;-76
2021/03/29 01:08:22;;;;;;;12.32;3.75;;;12.40;79.70;;;;;;2034043;29;20016;-76
2021/03/29 01:09:25;;;;;;;8.77;3.30;;;12.40;79.70;;;;;;2030083;29;20028;-76
2021/03/29 01:10:26;;;;;;;12.32;3.72;;;12.40;80.40;;;;;;2034862;29;20028;-77
2021/03/29 01:11:29;;;;;;;7.70;3.22;;;12.40;79.40;;;;;;2040957;29;20023;-76
2021/03/29 01:12:30;;;;;;;10.55;3.20;;;12.40;78.80;;;;;;2041000;29;20028;-77
2021/03/29 01:13:33;;;;;;;11.43;3.42;;;12.40;78.80;;;;;;2041372;29;20023;-77
2021/03/29 01:14:44;;;;;;;10.50;3.63;;;12.40;79.10;;;;;;2034886;29;20443;-77
2021/03/29 01:15:48;;;;;;;12.60;3.78;;;12.40;79.00;;;;;;2039044;29;20059;-76
2021/03/29 01:16:59;;;;;;;8.50;3.25;;;12.40;79.10;;;;;;2032845;29;20023;-76
2021/03/29 01:18:02;;;;;;;12.48;3.63;;;12.40;79.20;;;;;;2033385;29;20503;-76
2021/03/29 01:19:09;;;;;;;11.55;3.67;;;12.40;79.10;;;;;;2033489;29;20056;-76
2021/03/29 01:20:28;;;;;;;15.90;3.20;;;12.40;78.80;;;;;;2030611;29;20028;-76
2021/03/29 01:21:47;;;;;;;7.88;2.88;;;12.30;79.00;;;;;;2028280;29;20047;-76
2021/03/29 01:22:52;;;;;;;8.05;3.08;;;12.30;79.20;;;;;;2034292;29;20021;-76
2021/03/29 01:23:58;;;;;;;7.28;3.63;;;12.30;79.50;;;;;;2028068;29;20112;-76
2021/03/29 01:25:26;;;;;;;9.82;3.72;;;12.30;79.50;;;;;;2030908;29;20151;-76
2021/03/29 01:26:44;;;;;;;6.50;2.92;;;12.30;79.90;;;;;;2028035;29;20069;-76
2021/03/29 01:27:54;;;;;;;9.32;3.90;;;12.20;79.80;;;;;;2034044;29;20026;-76
2021/03/29 01:28:55;;;;;;;10.75;4.00;;;12.20;80.00;;;;;;2032733;29;20572;-77
2021/03/29 01:29:57;;;;;;;8.27;3.42;;;12.30;79.70;;;;;;2033439;29;20035;-76
2021/03/29 01:30:58;;;;;;;12.25;3.90;;;12.20;79.70;;;;;;2034177;29;20020;-76
2021/03/29 01:32:01;;;;;;;12.02;3.28;;;12.20;79.60;;;;;;2033263;29;20035;-76
2021/03/29 01:33:03;;;;;;;11.40;4.00;;;12.30;79.80;;;;;;2033192;29;20028;-77
2021/03/29 01:34:06;;;;;;;8.20;3.22;;;12.20;79.60;;;;;;2036937;29;20435;-76
2021/03/29 01:35:11;;;;;;;12.38;3.55;;;12.30;79.30;;;;;;2038633;29;20055;-76
2021/03/29 01:36:12;;;;;;;9.60;3.90;;;12.20;79.40;;;;;;2033270;29;20047;-76
2021/03/29 01:37:13;;;;;;;9.23;3.25;;;12.20;79.10;;;;;;2032717;29;20035;-77
2021/03/29 01:38:15;;;;;;;8.95;3.47;;;12.20;79.10;;;;;;2033385;29;20055;-76
2021/03/29 01:39:16;;;;;;;9.32;3.47;;;12.20;79.20;;;;;;2040088;29;20102;-76
2021/03/29 01:40:20;;;;;;;11.57;3.80;;;12.20;79.10;;;;;;2040347;29;20038;-76
2021/03/29 01:41:21;;;;;;;8.27;3.25;;;12.20;79.00;;;;;;2040119;29;20120;-76
2021/03/29 01:42:23;;;;;;;10.20;3.78;;;12.20;79.10;;;;;;2029699;29;20028;-76
2021/03/29 01:43:24;;;;;;;8.98;3.55;;;12.20;79.00;;;;;;2025186;29;20036;-76
2021/03/29 01:44:25;;;;;;;9.25;4.00;;;12.20;79.00;;;;;;2026000;29;20119;-76
2021/03/29 01:45:26;;;;;;;9.50;3.03;;;12.20;79.20;;;;;;2039899;29;20527;-76
2021/03/29 01:46:28;;;;;;;8.25;3.33;;;12.20;79.20;;;;;;2039574;29;20122;-76
2021/03/29 01:47:28;;;;;;;13.38;3.80;;;12.20;78.90;;;;;;2039339;29;20023;-76
2021/03/29 01:48:29;;;;;;;13.25;4.00;;;12.20;79.10;;;;;;2031752;29;20507;-76
2021/03/29 01:49:31;;;;;;;10.05;3.22;;;12.20;79.20;;;;;;2025373;29;20029;-76
2021/03/29 01:50:36;;;;;;;11.48;3.25;;;12.20;79.50;;;;;;2039864;29;20460;-76
2021/03/29 01:51:37;;;;;;;13.80;4.00;;;12.20;79.30;;;;;;2032868;29;20052;-76
2021/03/29 01:52:38;;;;;;;7.47;2.88;;;12.20;79.20;;;;;;2030580;29;20025;-76
2021/03/29 01:53:40;;;;;;;8.48;3.25;;;12.10;79.10;;;;;;2031938;29;20024;-76
2021/03/29 01:54:41;;;;;;;10.10;3.38;;;12.20;79.20;;;;;;2032341;29;20479;-77
2021/03/29 01:55:43;;;;;;;12.52;3.47;;;12.10;79.00;;;;;;2032279;29;20096;-77
2021/03/29 01:56:44;;;;;;;7.43;3.67;;;12.10;79.10;;;;;;2032160;29;20099;-77
2021/03/29 01:57:45;;;;;;;10.20;3.55;;;12.10;79.10;;;;;;2036610;29;20052;-76
2021/03/29 01:58:45;;;;;;;13.02;3.97;;;12.10;78.90;;;;;;2039784;29;20754;-76
2021/03/29 01:59:46;;;;;;;8.02;3.35;;;12.10;78.70;;;;;;2032687;29;20032;-76
2021/03/29 02:00:54;;;;;;;8.15;3.95;;;12.10;79.10;;;;;;2032953;29;20031;-77
2021/03/29 02:01:55;;;;;;;8.45;3.45;;;12.10;79.30;;;;;;2032871;29;20030;-76
2021/03/29 02:02:57;;;;;;;14.82;3.90;;;12.10;79.00;;;;;;2033462;29;20024;-77
2021/03/29 02:03:58;;;;;;;12.15;4.10;;;12.10;79.10;;;;;;2027843;29;20048;-77
2021/03/29 02:05:00;;;;;;;9.05;3.47;;;12.10;78.80;;;;;;2029447;29;20028;-76
2021/03/29 02:06:03;;;;;;;11.43;3.45;;;12.10;78.60;;;;;;2024264;29;20476;-76
2021/03/29 02:07:06;;;;;;;10.23;3.60;;;12.10;78.70;;;;;;2024785;29;20112;-76
2021/03/29 02:08:07;;;;;;;6.18;3.10;;;12.10;78.70;;;;;;2038506;29;20023;-76
2021/03/29 02:09:11;;;;;;;13.32;3.47;;;12.10;78.60;;;;;;2037964;29;20032;-76
2021/03/29 02:10:23;;;;;;;9.50;3.40;;;12.10;78.60;;;;;;2036943;29;20015;-77
2021/03/29 02:11:25;;;;;;;6.38;3.15;;;12.10;78.60;;;;;;2024790;29;20088;-76
2021/03/29 02:12:27;;;;;;;8.50;3.42;;;12.10;78.50;;;;;;2022075;29;20241;-76
2021/03/29 02:13:31;;;;;;;10.10;3.55;;;12.10;78.40;;;;;;2024938;29;20021;-76
2021/03/29 02:14:34;;;;;;;11.45;3.55;;;12.10;78.20;;;;;;2038188;29;20024;-76
2021/03/29 02:15:35;;;;;;;9.07;3.80;;;12.10;78.50;;;;;;2034336;29;20024;-77
2021/03/29 02:16:36;;;;;;;12.60;4.32;;;12.10;78.50;;;;;;2026696;29;20031;-76
2021/03/29 02:17:38;;;;;;;13.10;3.90;;;12.10;78.40;;;;;;2031332;29;20024;-76
2021/03/29 02:18:45;;;;;;;13.90;4.45;;;12.10;78.10;;;;;;2027325;29;20053;-77
2021/03/29 02:19:46;;;;;;;10.10;3.38;;;12.10;78.00;;;;;;2027318;29;20111;-76
2021/03/29 02:20:49;;;;;;;8.23;3.40;;;12.10;78.00;;;;;;2020762;29;20036;-77
2021/03/29 02:21:50;;;;;;;11.35;3.47;;;12.10;78.90;;;;;;2025336;29;20053;-76
2021/03/29 02:22:53;;;;;;;9.93;3.17;;;12.10;78.10;;;;;;2029134;29;20060;-76
2021/03/29 02:23:57;;;;;;;8.98;3.35;;;12.10;78.20;;;;;;2025704;29;20129;-76
2021/03/29 02:24:58;;;;;;;10.45;4.20;;;12.10;78.10;;;;;;2022386;29;20029;-77
2021/03/29 02:26:04;;;;;;;10.23;3.90;;;12.10;78.20;;;;;;2022694;29;20050;-76
2021/03/29 02:27:05;;;;;;;8.68;3.35;;;12.10;78.20;;;;;;2028509;29;20039;-76
2021/03/29 02:28:06;;;;;;;8.48;3.10;;;12.10;78.20;;;;;;2027729;29;20140;-76
2021/03/29 02:29:07;;;;;;;9.60;3.83;;;12.10;78.10;;;;;;2031548;29;20649;-76
2021/03/29 02:30:11;;;;;;;8.57;3.03;;;12.10;78.10;;;;;;2027449;29;20021;-76
2021/03/29 02:31:13;;;;;;;10.10;3.33;;;12.10;78.00;;;;;;2030534;29;20484;-77
2021/03/29 02:32:14;;;;;;;7.55;2.80;;;12.10;78.00;;;;;;2037677;29;20059;-76
2021/03/29 02:33:17;;;;;;;8.40;3.50;;;12.10;77.90;;;;;;2033927;29;20032;-76
2021/03/29 02:34:17;;;;;;;9.98;3.53;;;12.20;77.80;;;;;;2039835;29;20031;-76
2021/03/29 02:35:21;;;;;;;7.82;3.10;;;12.10;77.80;;;;;;2033597;29;20051;-76
2021/03/29 02:36:22;;;;;;;7.45;3.13;;;12.10;77.70;;;;;;2019339;29;20071;-76
2021/03/29 02:37:22;;;;;;;7.93;3.53;;;12.10;77.70;;;;;;2032777;29;20028;-76
2021/03/29 02:38:23;;;;;;;9.32;3.10;;;12.10;77.70;;;;;;2025667;29;20480;-76
2021/03/29 02:39:24;;;;;;;8.80;2.95;;;12.10;77.60;;;;;;2030215;29;20031;-76
2021/03/29 02:40:27;;;;;;;7.90;3.30;;;12.10;77.60;;;;;;2027312;29;20040;-77
2021/03/29 02:41:30;;;;;;;8.45;3.65;;;12.10;77.50;;;;;;2032032;29;20397;-77
2021/03/29 02:42:33;;;;;;;7.38;3.55;;;12.10;77.60;;;;;;2035010;29;20115;-76
2021/03/29 02:43:35;;;;;;;8.70;2.90;;;12.10;77.40;;;;;;2023416;29;20059;-76
2021/03/29 02:44:36;;;;;;;8.73;2.80;;;12.20;77.50;;;;;;2030521;29;20032;-76
2021/03/29 02:45:42;;;;;;;7.50;3.53;;;12.10;77.60;;;;;;2033077;29;20051;-75
2021/03/29 02:46:43;;;;;;;11.15;3.28;;;12.10;77.50;;;;;;2020570;29;20606;-76
2021/03/29 02:47:45;;;;;;;9.65;3.05;;;12.20;77.50;;;;;;2034611;29;20026;-77
2021/03/29 02:48:47;;;;;;;8.90;3.65;;;12.20;77.50;;;;;;2037975;29;20064;-76
2021/03/29 02:49:48;;;;;;;7.38;2.58;;;12.20;77.30;;;;;;2036618;29;20027;-77
2021/03/29 02:50:51;;;;;;;6.82;3.22;;;12.20;77.30;;;;;;2030121;29;20087;-77
2021/03/29 02:51:52;;;;;;;9.18;3.45;;;12.20;77.30;;;;;;2021097;29;20025;-76
2021/03/29 02:52:56;;;;;;;6.97;3.25;;;12.20;77.50;;;;;;2028519;29;20068;-76
2021/03/29 02:54:00;;;;;;;9.02;3.13;;;12.20;77.30;;;;;;2027452;29;20020;-76
2021/03/29 02:55:01;;;;;;;9.65;3.75;;;12.20;77.20;;;;;;2027768;29;20028;-76
2021/03/29 02:56:08;;;;;;;10.52;3.75;;;12.20;76.90;;;;;;2027518;29;20785;-76
2021/03/29 02:57:10;;;;;;;7.85;3.05;;;12.20;77.30;;;;;;2029689;29;20525;-77
2021/03/29 02:58:14;;;;;;;8.60;2.92;;;12.20;77.00;;;;;;2025037;29;20021;-76
2021/03/29 02:59:17;;;;;;;11.25;3.40;;;12.20;76.80;;;;;;2019590;29;20025;-77
2021/03/29 03:00:22;;;;;;;9.40;3.42;;;12.20;76.80;;;;;;2029020;29;20460;-76
2021/03/29 03:01:25;;;;;;;7.65;3.28;;;12.20;76.80;;;;;;2018856;29;20036;-76
2021/03/29 03:02:27;;;;;;;6.85;3.17;;;12.20;76.80;;;;;;2020979;29;20299;-76
2021/03/29 03:03:28;;;;;;;10.38;3.42;;;12.20;76.60;;;;;;2031745;29;20083;-76
2021/03/29 03:04:29;;;;;;;11.85;3.85;;;12.20;76.60;;;;;;2032682;29;20067;-76
2021/03/29 03:05:33;;;;;;;8.85;3.88;;;12.30;76.40;;;;;;2027753;29;20024;-76
2021/03/29 03:06:35;;;;;;;10.00;3.67;;;12.30;76.20;;;;;;2037920;29;20495;-77
2021/03/29 03:07:37;;;;;;;11.27;3.83;;;12.30;76.40;;;;;;2033003;29;20032;-76
2021/03/29 03:08:38;;;;;;;8.98;3.50;;;12.30;76.40;;;;;;2038157;29;20027;-76
2021/03/29 03:09:41;;;;;;;11.23;3.45;;;12.30;76.30;;;;;;2028464;29;20025;-76
2021/03/29 03:10:43;;;;;;;7.47;3.45;;;12.30;76.20;;;;;;2026783;29;20361;-77
2021/03/29 03:11:45;;;;;;;10.35;3.35;;;12.30;76.00;;;;;;2025095;29;20016;-76
2021/03/29 03:12:48;;;;;;;9.30;3.20;;;12.30;76.10;;;;;;2020424;29;20043;-76
2021/03/29 03:13:49;;;;;;;13.20;3.97;;;12.30;76.10;;;;;;2028082;29;20017;-76
2021/03/29 03:14:50;;;;;;;10.77;2.90;;;12.30;76.10;;;;;;2030272;29;20543;-77
2021/03/29 03:15:51;;;;;;;9.20;3.28;;;12.40;76.00;;;;;;2030759;29;20039;-76
2021/03/29 03:16:52;;;;;;;12.55;2.92;;;12.40;76.30;;;;;;2029085;29;20048;-76
2021/03/29 03:17:54;;;;;;;10.20;3.38;;;12.30;76.00;;;;;;2028683;29;20028;-76
2021/03/29 03:18:55;;;;;;;8.82;2.95;;;12.30;75.90;;;;;;2035963;29;20062;-76
2021/03/29 03:19:56;;;;;;;8.80;3.75;;;12.30;75.70;;;;;;2027224;29;20024;-76
2021/03/29 03:20:56;;;;;;;5.85;2.70;;;12.30;75.70;;;;;;2025113;29;20024;-77
2021/03/29 03:21:57;;;;;;;7.13;3.45;;;12.40;75.90;;;;;;2029067;29;20363;-76
2021/03/29 03:23:05;;;;;;;6.03;2.65;;;12.40;76.10;;;;;;2028222;29;20539;-76
2021/03/29 03:24:07;;;;;;;6.03;2.47;;;12.40;75.90;;;;;;2029851;29;20186;-77
2021/03/29 03:25:22;;;;;;;8.90;3.28;;;12.40;76.20;;;;;;2022922;29;20032;-76
2021/03/29 03:26:25;;;;;;;6.47;2.70;;;12.40;75.80;;;;;;2018250;29;20056;-76
2021/03/29 03:27:25;;;;;;;8.50;2.80;;;12.30;76.20;;;;;;2031597;29;20295;-76
2021/03/29 03:28:28;;;;;;;11.27;3.38;;;12.40;76.00;;;;;;2024772;29;20043;-76
2021/03/29 03:29:29;;;;;;;7.13;3.17;;;12.40;76.40;;;;;;2031450;29;20029;-76
2021/03/29 03:30:35;;;;;;;11.02;3.03;;;12.40;76.10;;;;;;2032274;29;20483;-76
2021/03/29 03:31:36;;;;;;;8.23;3.22;;;12.40;76.00;;;;;;2034755;29;20096;-76
2021/03/29 03:32:39;;;;;;;5.45;2.53;;;12.40;76.20;;;;;;2028888;29;20082;-76
2021/03/29 03:33:40;;;;;;;11.70;3.38;;;12.40;76.20;;;;;;2025935;29;20036;-77
2021/03/29 03:34:41;;;;;;;8.52;3.42;;;12.40;76.50;;;;;;2028374;29;20536;-76
2021/03/29 03:35:43;;;;;;;10.88;3.75;;;12.40;76.50;;;;;;2026895;29;20050;-76
2021/03/29 03:36:44;;;;;;;9.75;3.20;;;12.40;76.50;;;;;;2025463;29;20051;-77
2021/03/29 03:37:50;;;;;;;10.38;3.72;;;12.40;76.40;;;;;;2035983;29;20028;-76
2021/03/29 03:38:52;;;;;;;7.85;3.10;;;12.40;76.50;;;;;;2034231;29;20138;-76
2021/03/29 03:39:52;;;;;;;9.70;3.92;;;12.40;77.00;;;;;;2026235;29;20380;-76
2021/03/29 03:40:57;;;;;;;8.70;3.67;;;12.40;76.40;;;;;;2025868;29;20446;-77
2021/03/29 03:41:58;;;;;;;7.20;3.60;;;12.40;76.50;;;;;;2033327;29;20574;-76
2021/03/29 03:43:02;;;;;;;6.20;3.75;;;12.40;76.60;;;;;;2033053;29;20353;-76
2021/03/29 03:44:04;;;;;;;11.43;3.58;;;12.40;76.70;;;;;;2033807;29;20522;-76
2021/03/29 03:45:06;;;;;;;7.35;3.33;;;12.40;76.70;;;;;;2031116;29;20032;-76
2021/03/29 03:46:31;;;;;;;12.90;3.97;;;12.40;76.90;;;;;;2023750;29;20035;-76
2021/03/29 03:47:33;;;;;;;9.32;3.13;;;12.40;77.10;;;;;;2022876;29;20040;-77
2021/03/29 03:48:37;;;;;;;7.95;3.67;;;12.30;77.20;;;;;;2028765;29;20028;-76
2021/03/29 03:49:39;;;;;;;11.43;3.78;;;12.30;77.40;;;;;;2035577;29;20479;-77
2021/03/29 03:50:41;;;;;;;9.63;3.70;;;12.30;77.30;;;;;;2032973;29;20111;-76
2021/03/29 03:51:44;;;;;;;8.00;3.05;;;12.30;77.40;;;;;;2024725;29;20118;-77
2021/03/29 03:52:46;;;;;;;10.82;3.42;;;12.30;77.20;;;;;;2023116;29;20448;-76
2021/03/29 03:53:46;;;;;;;8.13;3.30;;;12.30;77.20;;;;;;2026682;29;20036;-77
2021/03/29 03:54:47;;;;;;;8.15;3.13;;;12.40;77.30;;;;;;2022940;29;20099;-77
2021/03/29 03:55:52;;;;;;;8.35;3.08;;;12.30;77.40;;;;;;2028915;29;20024;-77
2021/03/29 03:56:54;;;;;;;9.85;3.30;;;12.40;77.40;;;;;;2028011;29;20019;-76
2021/03/29 03:57:55;;;;;;;7.72;3.28;;;12.30;77.40;;;;;;2026021;29;20035;-77
2021/03/29 03:58:55;;;;;;;9.20;3.00;;;12.30;77.50;;;;;;2033238;29;20022;-76
2021/03/29 03:59:56;;;;;;;10.15;2.85;;;12.30;77.20;;;;;;2032404;29;20027;-76
2021/03/29 04:00:58;;;;;;;9.07;3.38;;;12.30;77.40;;;;;;2026342;29;20095;-76
2021/03/29 04:02:05;;;;;;;8.02;3.33;;;12.30;77.50;;;;;;2023841;29;20036;-76
2021/03/29 04:03:05;;;;;;;7.40;2.67;;;12.30;77.40;;;;;;2036440;29;20472;-77
2021/03/29 04:04:06;;;;;;;9.23;3.20;;;12.40;77.50;;;;;;2033605;29;20990;-76
2021/03/29 04:05:12;;;;;;;11.80;3.03;;;12.30;77.60;;;;;;2026512;29;20032;-76
2021/03/29 04:06:12;;;;;;;7.55;3.58;;;12.30;77.50;;;;;;2031572;29;20035;-76
2021/03/29 04:07:13;;;;;;;13.13;3.28;;;12.30;77.60;;;;;;2023489;29;20021;-76
2021/03/29 04:08:14;;;;;;;8.35;2.95;;;12.30;77.60;;;;;;2037907;29;20027;-77
2021/03/29 04:09:14;;;;;;;6.82;3.17;;;12.30;77.80;;;;;;2023775;29;20028;-76
2021/03/29 04:11:22;;;;;;;7.20;3.30;;;12.30;77.90;;;;;;2025736;29;20588;-76
2021/03/29 04:12:23;;;;;;;6.95;3.33;;;12.30;77.90;;;;;;2022496;29;20161;-76
2021/03/29 04:14:24;;;;;;;8.35;3.13;;;12.30;77.80;;;;;;2029451;29;20024;-76
2021/03/29 04:15:25;;;;;;;9.27;3.53;;;12.30;77.80;;;;;;2027040;29;20180;-76
2021/03/29 04:16:26;;;;;;;9.75;3.03;;;12.30;77.80;;;;;;2026280;29;20112;-76
2021/03/29 04:17:26;;;;;;;11.43;3.65;;;12.30;78.00;;;;;;2023785;29;20029;-76
2021/03/29 04:18:27;;;;;;;11.40;3.67;;;12.30;78.00;;;;;;2024186;29;20499;-76
2021/03/29 04:19:29;;;;;;;7.05;3.20;;;12.30;78.10;;;;;;2030147;29;20084;-76
2021/03/29 04:20:29;;;;;;;9.75;3.70;;;12.30;77.70;;;;;;2022059;29;20144;-76
2021/03/29 04:21:30;;;;;;;7.32;2.55;;;12.30;78.00;;;;;;2029368;29;20495;-76
2021/03/29 04:22:30;;;;;;;6.13;2.97;;;12.30;78.10;;;;;;2024423;29;20036;-76
2021/03/29 04:23:31;;;;;;;6.03;2.65;;;12.30;78.20;;;;;;2025478;29;20068;-76
2021/03/29 04:24:32;;;;;;;8.52;2.92;;;12.30;78.00;;;;;;2030976;29;20032;-76
2021/03/29 04:25:33;;;;;;;8.45;2.80;;;12.30;78.30;;;;;;2025032;29;20040;-76
2021/03/29 04:26:34;;;;;;;8.25;2.97;;;12.30;78.40;;;;;;2027927;29;20052;-76
2021/03/29 04:27:34;;;;;;;9.38;3.08;;;12.30;78.50;;;;;;2029483;29;20439;-77
2021/03/29 04:28:35;;;;;;;10.10;3.13;;;12.30;78.50;;;;;;2025458;29;20532;-76
2021/03/29 04:29:35;;;;;;;10.80;2.78;;;12.30;78.60;;;;;;2036438;29;20032;-76
2021/03/29 04:30:36;;;;;;;7.65;3.03;;;12.30;78.60;;;;;;2032868;29;20534;-76
2021/03/29 04:31:37;;;;;;;6.57;2.83;;;12.30;78.90;;;;;;2034664;29;20498;-76
2021/03/29 04:32:39;;;;;;;8.23;2.65;;;12.30;78.80;;;;;;2033809;29;20417;-76
2021/03/29 04:33:39;;;;;;;8.55;2.88;;;12.30;79.00;;;;;;2025203;29;20112;-77
2021/03/29 04:34:40;;;;;;;7.35;2.92;;;12.30;79.20;;;;;;2025485;29;20033;-76
2021/03/29 04:35:41;;;;;;;6.72;2.70;;;12.30;79.30;;;;;;2023735;29;20552;-76
2021/03/29 04:36:41;;;;;;;7.43;3.03;;;12.30;79.40;;;;;;2024291;29;20039;-77
2021/03/29 04:37:42;;;;;;;7.10;3.10;;;12.30;79.30;;;;;;2021898;29;20046;-76
2021/03/29 04:38:43;;;;;;;15.40;2.97;;;12.30;79.30;;;;;;2023436;29;20477;-76
2021/03/29 04:39:43;;;;;;;6.38;2.90;;;12.20;79.20;;;;;;2024025;29;20032;-76
2021/03/29 04:40:44;;;;;;;10.10;3.13;;;12.20;79.10;;;;;;2023825;29;20049;-76
2021/03/29 04:41:44;;;;;;;9.07;3.95;;;12.30;79.20;;;;;;2027042;29;20036;-76
2021/03/29 04:42:45;;;;;;;6.80;3.47;;;12.20;79.20;;;;;;2023892;29;20296;-76
2021/03/29 04:43:46;;;;;;;10.20;3.35;;;12.20;79.40;;;;;;2024194;29;20119;-76
2021/03/29 04:44:46;;;;;;;9.70;3.28;;;12.30;79.30;;;;;;2027350;29;20539;-77
2021/03/29 04:45:47;;;;;;;6.30;2.95;;;12.20;79.40;;;;;;2028370;29;20038;-76
2021/03/29 04:46:48;;;;;;;10.73;3.40;;;12.20;79.60;;;;;;2022732;29;20055;-76
2021/03/29 04:47:49;;;;;;;10.10;3.08;;;12.20;79.50;;;;;;2022276;29;20035;-76
2021/03/29 04:48:49;;;;;;;8.05;2.80;;;12.20;79.50;;;;;;2030784;29;20027;-76
2021/03/29 04:49:50;;;;;;;8.35;3.17;;;12.20;79.90;;;;;;2034531;29;20024;-76
2021/03/29 04:50:50;;;;;;;6.90;3.13;;;12.20;80.20;;;;;;2035089;29;20087;-77
2021/03/29 04:51:51;;;;;;;10.52;2.38;;;12.20;80.10;;;;;;2026593;29;20386;-76
2021/03/29 04:52:52;;;;;;;7.65;2.58;;;12.20;80.00;;;;;;2020868;29;20131;-76
2021/03/29 04:53:53;;;;;;;10.80;3.15;;;12.20;80.10;;;;;;2027369;29;20025;-76
2021/03/29 04:54:53;;;;;;;9.70;2.80;;;12.20;80.00;;;;;;2023745;29;20748;-76
2021/03/29 04:55:54;;;;;;;7.88;2.58;;;12.20;80.20;;;;;;2021435;29;20036;-76
2021/03/29 04:56:55;;;;;;;7.28;2.67;;;12.20;80.30;;;;;;2023293;29;20100;-76
2021/03/29 04:57:55;;;;;;;5.00;2.80;;;12.10;80.20;;;;;;2020749;29;20048;-76
2021/03/29 04:58:56;;;;;;;7.38;2.65;;;12.10;80.50;;;;;;2029872;29;20047;-76
2021/03/29 04:59:56;;;;;;;6.25;2.40;;;12.10;80.80;;;;;;2036510;29;20035;-76
2021/03/29 05:00:57;;;;;;;8.95;2.70;;;12.10;80.90;;;;;;2028373;29;20112;-76
2021/03/29 05:01:58;;;;;;;12.68;2.85;;;12.20;80.90;;;;;;2025888;29;20436;-76
2021/03/29 05:02:58;;;;;;;11.75;2.70;;;12.10;80.90;;;;;;2023591;29;20020;-76
2021/03/29 05:03:59;;;;;;;5.90;2.15;;;12.20;81.20;;;;;;2017888;29;20116;-76
2021/03/29 05:04:59;;;;;;;6.82;2.35;;;12.10;81.00;;;;;;2022944;29;20021;-76
2021/03/29 05:06:00;;;;;;;8.82;2.55;;;12.10;80.70;;;;;;2021691;29;20028;-77
2021/03/29 05:07:00;;;;;;;11.93;2.40;;;12.10;80.90;;;;;;2033185;29;20563;-76
2021/03/29 05:08:01;;;;;;;6.82;2.58;;;12.20;81.00;;;;;;2030224;29;20507;-76
2021/03/29 05:09:02;;;;;;;7.65;2.55;;;12.10;81.00;;;;;;2023475;29;20081;-76
2021/03/29 05:10:08;;;;;;;6.10;2.47;;;12.10;81.20;;;;;;2024744;29;20041;-76
2021/03/29 05:11:10;;;;;;;6.32;2.67;;;12.10;81.70;;;;;;2022800;29;20088;-76
2021/03/29 05:12:12;;;;;;;10.18;2.72;;;12.10;81.50;;;;;;2023258;29;20021;-76
2021/03/29 05:13:13;;;;;;;7.65;3.10;;;12.10;81.70;;;;;;2022470;29;20043;-76
2021/03/29 05:14:14;;;;;;;8.38;2.88;;;12.10;81.40;;;;;;2020735;29;20373;-76
2021/03/29 05:15:15;;;;;;;9.82;3.22;;;12.10;81.50;;;;;;2030271;29;20479;-76
2021/03/29 05:16:15;;;;;;;6.63;2.83;;;12.10;81.80;;;;;;2024196;29;20043;-76
2021/03/29 05:17:16;;;;;;;10.05;3.25;;;12.10;81.80;;;;;;2022573;29;20171;-76
2021/03/29 05:18:17;;;;;;;7.15;3.05;;;12.10;81.80;;;;;;2031350;29;20028;-76
2021/03/29 05:19:18;;;;;;;13.15;3.13;;;12.10;81.90;;;;;;2029927;29;20035;-76
2021/03/29 05:20:18;;;;;;;7.05;2.75;;;12.10;82.30;;;;;;2029020;29;20533;-76
2021/03/29 05:21:19;;;;;;;12.90;2.85;;;12.00;82.40;;;;;;2025714;29;20032;-77
2021/03/29 05:22:19;;;;;;;8.20;3.63;;;12.10;82.80;;;;;;2025382;29;20025;-76
2021/03/29 05:23:20;;;;;;;9.13;2.58;;;12.00;82.90;;;;;;2026586;29;20021;-77
2021/03/29 05:24:21;;;;;;;6.35;2.65;;;12.00;82.90;;;;;;2021478;29;20033;-76
2021/03/29 05:25:21;;;;;;;8.52;3.25;;;12.10;83.20;;;;;;2019527;29;20037;-76